Time;durP1;ratioP1;P1;durP2;ratioP2;P2;SDS_P1;SDS_P2;PMS_P1;PMS_P2;Temp;Humidity;BMP_temperature;BMP_pressure;BME280_temperature;BME280_humidity;BME280_pressure;Samples;Min_cycle;Max_cycle;Signal;HPM_P1;HPM_P2
2024/01/07 00:01:30;;;;;;;82.20;30.50;;;;;;;1.29;100.00;101367.94;6249092;22;20470;-86
2024/01/07 00:03:56;;;;;;;79.45;30.08;;;;;;;1.32;100.00;101377.78;6249830;22;20440;-87
2024/01/07 00:06:21;;;;;;;81.50;30.52;;;;;;;1.32;100.00;101380.47;6249801;22;20437;-86
2024/01/07 00:08:48;;;;;;;84.18;31.65;;;;;;;1.32;100.00;101375.06;6275050;22;20011;-87
2024/01/07 00:11:14;;;;;;;75.07;29.40;;;;;;;1.27;100.00;101382.44;6275823;22;20014;-87
2024/01/07 00:13:41;;;;;;;71.60;28.00;;;;;;;1.26;100.00;101386.97;6275516;22;20031;-87
2024/01/07 00:16:07;;;;;;;82.57;28.58;;;;;;;1.33;100.00;101390.34;6274823;22;20011;-87
2024/01/07 00:18:33;;;;;;;77.57;29.00;;;;;;;1.28;100.00;101390.50;6302255;22;20442;-87
2024/01/07 00:20:59;;;;;;;74.25;29.00;;;;;;;1.38;100.00;101388.38;6275984;22;20503;-86
2024/01/07 00:23:24;;;;;;;75.18;27.13;;;;;;;1.29;100.00;101394.94;6273999;22;20011;-85
2024/01/07 00:25:51;;;;;;;77.88;28.27;;;;;;;1.31;100.00;101389.50;6300388;22;20095;-86
2024/01/07 00:28:16;;;;;;;74.75;27.23;;;;;;;1.34;100.00;101392.09;6248728;22;20031;-86
2024/01/07 00:30:42;;;;;;;70.50;26.30;;;;;;;1.32;100.00;101387.69;6249091;22;20012;-86
2024/01/07 00:33:08;;;;;;;72.95;25.80;;;;;;;1.27;100.00;101404.03;6249021;22;20042;-86
2024/01/07 00:35:34;;;;;;;69.78;25.80;;;;;;;1.27;100.00;101399.50;6249134;22;20004;-87
2024/01/07 00:37:59;;;;;;;68.53;25.77;;;;;;;1.22;100.00;101397.88;6248643;22;20018;-87
2024/01/07 00:40:26;;;;;;;77.93;25.85;;;;;;;1.32;100.00;101403.88;6274707;22;20011;-87
2024/01/07 00:42:52;;;;;;;74.50;26.55;;;;;;;1.24;100.00;101401.41;6300868;22;20003;-88
2024/01/07 00:45:18;;;;;;;77.75;27.88;;;;;;;1.29;100.00;101412.94;6275251;22;20505;-87
2024/01/07 00:47:43;;;;;;;82.72;29.45;;;;;;;1.26;100.00;101413.94;6300159;22;20019;-86
2024/01/07 00:50:09;;;;;;;72.25;28.23;;;;;;;1.22;100.00;101414.06;6275221;22;20415;-87
2024/01/07 00:52:37;;;;;;;78.95;27.92;;;;;;;1.34;100.00;101415.50;6249115;22;20066;-87
2024/01/07 00:55:06;;;;;;;77.40;27.83;;;;;;;1.27;100.00;101418.38;6274919;22;20007;-87
2024/01/07 00:57:32;;;;;;;76.25;28.83;;;;;;;1.27;100.00;101425.59;6244230;22;20034;-86
2024/01/07 01:00:05;;;;;;;76.55;29.13;;;;;;;1.29;100.00;101424.59;6276133;22;20094;-87
2024/01/07 01:02:33;;;;;;;80.20;28.63;;;;;;;1.32;100.00;101426.34;6275496;22;20077;-87
2024/01/07 01:04:58;;;;;;;81.57;29.40;;;;;;;1.37;100.00;101428.88;6300124;22;20011;-87
2024/01/07 01:07:24;;;;;;;80.28;26.38;;;;;;;1.27;100.00;101429.16;6274254;22;20026;-87
2024/01/07 01:09:49;;;;;;;76.28;28.80;;;;;;;1.32;100.00;101438.94;6300282;22;20061;-86
2024/01/07 01:12:15;;;;;;;86.03;28.85;;;;;;;1.29;100.00;101437.22;6249352;22;20012;-86
2024/01/07 01:14:41;;;;;;;77.30;28.58;;;;;;;1.31;100.00;101434.47;6249106;22;20008;-87
2024/01/07 01:17:06;;;;;;;78.95;28.90;;;;;;;1.33;100.00;101432.59;6274251;22;20011;-86
2024/01/07 01:19:32;;;;;;;81.03;27.98;;;;;;;1.26;100.00;101434.59;6247273;22;20032;-86
2024/01/07 01:21:58;;;;;;;85.95;28.83;;;;;;;1.20;100.00;101442.91;6248432;22;20089;-86
2024/01/07 01:24:25;;;;;;;75.72;28.15;;;;;;;1.28;100.00;101439.03;6248668;22;20038;-87
2024/01/07 01:26:50;;;;;;;85.78;29.40;;;;;;;1.27;100.00;101448.03;6274659;22;20016;-86
2024/01/07 01:29:15;;;;;;;80.20;27.38;;;;;;;1.33;100.00;101457.78;6272504;22;19999;-86
2024/01/07 01:31:41;;;;;;;81.40;28.85;;;;;;;1.21;100.00;101450.94;6274462;22;20022;-86
2024/01/07 01:34:07;;;;;;;89.30;31.73;;;;;;;1.18;100.00;101453.75;6247713;22;20008;-85
2024/01/07 01:36:33;;;;;;;103.82;30.92;;;;;;;1.21;100.00;101463.53;6299924;22;20479;-85
2024/01/07 01:38:58;;;;;;;92.38;30.13;;;;;;;1.23;100.00;101461.66;6247951;22;20015;-86
2024/01/07 01:41:23;;;;;;;97.63;30.83;;;;;;;1.25;100.00;101462.53;6273036;22;20018;-85
2024/01/07 01:43:49;;;;;;;96.45;29.70;;;;;;;1.21;100.00;101471.63;6247234;22;20078;-85
2024/01/07 01:46:14;;;;;;;99.18;30.35;;;;;;;1.19;100.00;101470.81;6298809;22;20061;-86
2024/01/07 01:48:42;;;;;;;89.88;27.67;;;;;;;1.24;100.00;101461.63;6246385;22;20012;-86
2024/01/07 01:51:07;;;;;;;87.32;29.05;;;;;;;1.18;100.00;101477.13;6273025;22;20450;-85
2024/01/07 01:53:33;;;;;;;84.25;27.88;;;;;;;1.12;100.00;101469.22;6274939;22;20003;-86
2024/01/07 01:56:02;;;;;;;86.28;29.35;;;;;;;1.18;100.00;101474.41;6273363;22;20019;-86
2024/01/07 01:58:29;;;;;;;89.13;29.38;;;;;;;1.19;100.00;101481.59;6273898;22;20011;-86
2024/01/07 02:00:55;;;;;;;96.70;31.55;;;;;;;1.26;100.00;101481.38;6247779;22;20008;-86
2024/01/07 02:03:21;;;;;;;119.03;33.17;;;;;;;1.13;100.00;101481.75;6274637;22;20015;-85
2024/01/07 02:05:50;;;;;;;107.10;33.30;;;;;;;1.08;100.00;101488.19;6248495;22;20503;-86
2024/01/07 02:08:17;;;;;;;111.68;32.65;;;;;;;1.07;100.00;101480.16;6273800;22;20083;-86
2024/01/07 02:10:42;;;;;;;136.60;35.83;;;;;;;1.09;100.00;101476.47;6273765;22;20000;-86
2024/01/07 02:13:08;;;;;;;180.35;43.45;;;;;;;1.12;100.00;101480.03;6274806;22;20008;-86
2024/01/07 02:15:35;;;;;;;140.30;39.10;;;;;;;1.14;100.00;101484.41;6248827;22;20004;-86
2024/01/07 02:18:00;;;;;;;153.30;39.03;;;;;;;1.11;100.00;101479.09;6275195;22;20495;-86
2024/01/07 02:20:26;;;;;;;163.32;40.05;;;;;;;1.11;100.00;101479.09;6272384;22;20042;-86
2024/01/07 02:22:51;;;;;;;129.80;35.90;;;;;;;1.10;100.00;101482.75;6247553;22;20091;-85
2024/01/07 02:25:17;;;;;;;128.05;35.03;;;;;;;1.06;100.00;101483.75;6247601;22;20003;-86
2024/01/07 02:27:43;;;;;;;123.82;32.60;;;;;;;1.10;100.00;101493.53;6299357;22;20106;-85
2024/01/07 02:30:08;;;;;;;113.70;32.35;;;;;;;1.18;100.00;101488.81;6247008;22;20007;-86
2024/01/07 02:32:35;;;;;;;117.60;34.25;;;;;;;1.14;100.00;101497.03;6273569;22;20003;-86
2024/01/07 02:35:03;;;;;;;108.60;32.08;;;;;;;1.15;100.00;101496.06;6275471;22;20011;-86
2024/01/07 02:37:29;;;;;;;116.07;35.10;;;;;;;1.21;100.00;101495.91;6275342;22;20065;-86
2024/01/07 02:39:56;;;;;;;128.15;35.75;;;;;;;1.19;100.00;101490.56;6274337;22;20008;-85
2024/01/07 02:42:21;;;;;;;122.50;34.80;;;;;;;1.18;100.00;101496.91;6275465;22;20012;-85
2024/01/07 02:44:47;;;;;;;121.80;33.65;;;;;;;1.14;100.00;101503.28;6249363;22;20389;-85
2024/01/07 02:47:12;;;;;;;128.68;35.30;;;;;;;1.15;100.00;101507.78;6250133;22;20011;-86
2024/01/07 02:49:37;;;;;;;128.88;36.33;;;;;;;1.15;100.00;101506.88;6275237;22;20011;-86
2024/01/07 02:52:03;;;;;;;98.78;29.85;;;;;;;1.14;100.00;101508.69;6274313;22;20053;-86
2024/01/07 02:54:29;;;;;;;109.95;34.30;;;;;;;1.14;100.00;101511.38;6249577;22;20022;-86
2024/01/07 02:56:55;;;;;;;89.53;26.65;;;;;;;1.17;100.00;101516.69;6274533;22;20011;-85
2024/01/07 02:59:21;;;;;;;85.90;29.65;;;;;;;1.16;100.00;101517.59;6250190;22;20004;-85
2024/01/07 03:01:46;;;;;;;95.93;29.63;;;;;;;1.19;100.00;101519.34;6249391;22;20019;-85
2024/01/07 03:04:13;;;;;;;86.65;28.70;;;;;;;1.20;100.00;101521.13;6300940;22;20011;-86
2024/01/07 03:06:39;;;;;;;95.47;28.92;;;;;;;1.14;100.00;101524.00;6249871;22;20007;-86
2024/01/07 03:09:04;;;;;;;94.28;29.40;;;;;;;1.10;100.00;101523.22;6275469;22;20008;-86
2024/01/07 03:11:30;;;;;;;95.32;27.65;;;;;;;1.09;100.00;101529.50;6249207;22;20035;-85
2024/01/07 03:13:57;;;;;;;92.10;28.38;;;;;;;1.10;100.00;101536.69;6249841;22;20078;-87
2024/01/07 03:16:23;;;;;;;104.20;30.05;;;;;;;1.08;100.00;101534.03;6250051;22;20022;-85
2024/01/07 03:18:49;;;;;;;82.40;26.25;;;;;;;0.99;100.00;101528.91;6275500;22;20039;-85
2024/01/07 03:21:24;;;;;;;92.03;28.25;;;;;;;1.08;100.00;101538.53;6299482;22;20323;-85
2024/01/07 03:23:50;;;;;;;86.03;26.23;;;;;;;1.04;100.00;101536.84;6275166;22;20062;-86
2024/01/07 03:26:17;;;;;;;80.90;26.75;;;;;;;1.00;100.00;101544.16;6274865;22;20008;-86
2024/01/07 03:28:43;;;;;;;80.10;27.77;;;;;;;0.95;100.00;101532.59;6275031;22;20423;-85
2024/01/07 03:31:12;;;;;;;76.18;25.05;;;;;;;0.96;100.00;101542.47;6275865;22;20016;-87
2024/01/07 03:33:40;;;;;;;82.63;25.13;;;;;;;0.87;100.00;101537.31;6275425;22;20098;-87
2024/01/07 03:36:08;;;;;;;70.20;24.02;;;;;;;1.00;100.00;101545.94;6275898;22;20007;-87
2024/01/07 03:38:34;;;;;;;76.70;25.02;;;;;;;0.88;100.00;101547.19;6275697;22;20011;-86
2024/01/07 03:41:00;;;;;;;86.57;26.67;;;;;;;0.85;100.00;101547.25;6275126;22;20018;-86
2024/01/07 03:43:26;;;;;;;87.60;28.50;;;;;;;0.80;100.00;101557.28;6274608;22;20007;-86
2024/01/07 03:45:51;;;;;;;81.90;26.83;;;;;;;0.82;100.00;101553.63;6249960;22;20086;-86
2024/01/07 03:48:16;;;;;;;79.10;27.02;;;;;;;0.87;100.00;101553.47;6249778;22;20397;-86
2024/01/07 03:50:43;;;;;;;80.40;26.50;;;;;;;0.95;100.00;101547.88;6275598;22;20549;-85
2024/01/07 03:53:10;;;;;;;80.28;25.95;;;;;;;0.88;100.00;101556.13;6250641;22;20061;-87
2024/01/07 03:55:36;;;;;;;81.13;27.95;;;;;;;0.85;100.00;101558.94;6249691;22;20008;-86
2024/01/07 03:58:03;;;;;;;79.00;26.88;;;;;;;0.90;100.00;101559.69;6301685;22;20015;-86
2024/01/07 04:00:30;;;;;;;73.15;26.73;;;;;;;0.92;100.00;101548.88;6275063;22;20436;-86
2024/01/07 04:02:55;;;;;;;83.18;26.60;;;;;;;0.89;100.00;101563.31;6249012;22;20099;-86
2024/01/07 04:05:20;;;;;;;72.40;25.98;;;;;;;0.89;100.00;101573.22;6248235;22;20054;-86
2024/01/07 04:07:47;;;;;;;82.38;24.75;;;;;;;0.84;100.00;101564.38;6248300;22;20038;-85
2024/01/07 04:10:12;;;;;;;73.05;23.38;;;;;;;0.83;100.00;101565.28;6248567;22;20004;-85
2024/01/07 04:12:39;;;;;;;75.15;25.13;;;;;;;0.83;100.00;101571.56;6248922;22;20177;-86
2024/01/07 04:15:05;;;;;;;72.63;26.52;;;;;;;0.82;100.00;101569.81;6274352;22;20012;-86
2024/01/07 04:17:31;;;;;;;67.32;24.70;;;;;;;0.85;100.00;101574.22;6274040;22;20350;-86
2024/01/07 04:19:56;;;;;;;60.45;21.85;;;;;;;0.81;100.00;101575.25;6249448;22;20008;-86
2024/01/07 04:22:23;;;;;;;69.63;23.17;;;;;;;0.79;100.00;101574.38;6299919;22;20085;-86
2024/01/07 04:24:50;;;;;;;68.90;22.67;;;;;;;0.78;100.00;101581.59;6277766;22;20014;-91
2024/01/07 04:27:15;;;;;;;61.35;22.90;;;;;;;0.82;100.00;101585.06;6277653;22;20012;-93
2024/01/07 04:29:42;;;;;;;66.40;22.60;;;;;;;0.83;100.00;101586.84;6251711;22;20419;-90
2024/01/07 04:32:07;;;;;;;58.88;22.58;;;;;;;0.80;100.00;101592.31;6251736;22;19999;-91
2024/01/07 04:34:33;;;;;;;68.05;22.35;;;;;;;0.82;100.00;101593.16;6277232;22;20038;-91
2024/01/07 04:36:59;;;;;;;65.80;23.40;;;;;;;0.78;100.00;101595.06;6251431;22;20012;-91
2024/01/07 04:39:26;;;;;;;66.47;24.02;;;;;;;0.76;100.00;101593.34;6251538;22;20008;-91
2024/01/07 04:41:52;;;;;;;48.00;17.92;;;;;;;0.76;100.00;101594.22;6251773;22;20095;-91
2024/01/07 04:44:18;;;;;;;65.90;22.80;;;;;;;0.71;100.00;101599.72;6277581;22;20023;-91
2024/01/07 04:46:44;;;;;;;67.07;25.33;;;;;;;0.68;100.00;101598.94;6251568;22;20034;-91
2024/01/07 04:49:09;;;;;;;62.67;22.77;;;;;;;0.77;100.00;101603.19;6276877;22;20435;-91
2024/01/07 04:51:36;;;;;;;70.75;22.65;;;;;;;0.70;100.00;101611.41;6251776;22;20463;-91
2024/01/07 04:54:03;;;;;;;60.28;21.55;;;;;;;0.74;100.00;101609.56;6277139;22;20000;-91
2024/01/07 04:56:29;;;;;;;60.78;21.48;;;;;;;0.70;100.00;101613.25;6276579;22;20003;-91
2024/01/07 04:58:54;;;;;;;59.33;20.92;;;;;;;0.74;100.00;101612.25;6277724;22;20035;-91
2024/01/07 05:01:21;;;;;;;52.35;21.58;;;;;;;0.63;100.00;101617.03;6276921;22;20130;-91
2024/01/07 05:03:47;;;;;;;49.47;19.23;;;;;;;0.65;100.00;101613.34;6251151;22;20321;-90
2024/01/07 05:06:13;;;;;;;44.72;18.65;;;;;;;0.65;100.00;101621.44;6277013;22;20008;-93
2024/01/07 05:08:40;;;;;;;53.67;20.92;;;;;;;0.65;100.00;101626.81;6252386;22;20034;-93
2024/01/07 05:11:06;;;;;;;55.10;21.50;;;;;;;0.67;100.00;101624.09;6278902;22;20019;-92
2024/01/07 05:13:31;;;;;;;51.22;19.85;;;;;;;0.71;100.00;101621.28;6259609;22;20022;-91
2024/01/07 05:15:57;;;;;;;44.95;18.17;;;;;;;0.71;100.00;101623.09;6286894;22;20109;-91
2024/01/07 05:18:23;;;;;;;53.13;21.25;;;;;;;0.61;100.00;101632.31;6289095;22;20095;-90
2024/01/07 05:20:49;;;;;;;47.38;19.67;;;;;;;0.62;100.00;101636.81;6285021;22;20012;-91
2024/01/07 05:23:16;;;;;;;47.03;19.40;;;;;;;0.59;100.00;101635.09;6278585;22;20404;-91
2024/01/07 05:25:46;;;;;;;49.63;20.67;;;;;;;0.60;100.00;101642.22;6280032;22;20035;-91
2024/01/07 05:28:13;;;;;;;50.83;20.63;;;;;;;0.59;100.00;101645.88;6266986;22;20027;-91
2024/01/07 05:30:39;;;;;;;51.20;20.83;;;;;;;0.51;100.00;101651.44;6270799;22;20003;-90
2024/01/07 05:33:07;;;;;;;46.42;19.70;;;;;;;0.60;100.00;101662.91;6267320;22;20471;-86
2024/01/07 05:35:32;;;;;;;46.70;20.05;;;;;;;0.57;100.00;101662.97;6275091;22;20094;-86
2024/01/07 05:37:58;;;;;;;47.63;20.23;;;;;;;0.49;100.00;101663.16;6248964;22;20404;-86
2024/01/07 05:40:23;;;;;;;44.53;18.45;;;;;;;0.49;100.00;101661.38;6300056;22;20123;-86
2024/01/07 05:42:49;;;;;;;45.55;19.65;;;;;;;0.54;100.00;101662.16;6247918;22;20090;-85
2024/01/07 05:45:15;;;;;;;53.22;20.17;;;;;;;0.51;100.00;101667.59;6273562;22;20011;-87
2024/01/07 05:47:42;;;;;;;46.55;19.63;;;;;;;0.49;100.00;101668.53;6300033;22;20003;-86
2024/01/07 05:50:08;;;;;;;48.88;21.10;;;;;;;0.45;100.00;101677.63;6274917;22;20004;-86
2024/01/07 05:52:34;;;;;;;47.30;18.77;;;;;;;0.47;100.00;101673.09;6248793;22;20395;-86
2024/01/07 05:55:00;;;;;;;47.33;20.05;;;;;;;0.40;100.00;101684.94;6274699;22;20007;-87
2024/01/07 05:57:25;;;;;;;51.20;20.52;;;;;;;0.46;100.00;101677.59;6273790;22;20015;-87
2024/01/07 05:59:51;;;;;;;35.83;16.45;;;;;;;0.46;100.00;101683.00;6247359;22;20103;-86
2024/01/07 06:02:17;;;;;;;37.40;16.38;;;;;;;0.48;100.00;101675.75;6272769;22;20035;-85
2024/01/07 06:04:44;;;;;;;46.42;20.77;;;;;;;0.50;100.00;101687.38;6273818;22;20011;-86
2024/01/07 06:07:09;;;;;;;46.92;22.05;;;;;;;0.53;100.00;101686.44;6273197;22;20019;-86
2024/01/07 06:09:35;;;;;;;38.25;17.92;;;;;;;0.52;100.00;101699.00;6273328;22;20007;-86
2024/01/07 06:12:03;;;;;;;43.42;18.65;;;;;;;0.45;100.00;101697.38;6247409;22;20007;-85
2024/01/07 06:14:29;;;;;;;41.50;19.30;;;;;;;0.53;100.00;101698.06;6248571;22;20004;-86
2024/01/07 06:16:58;;;;;;;38.97;17.33;;;;;;;0.53;100.00;101703.47;6273007;22;20003;-86
2024/01/07 06:19:26;;;;;;;40.67;18.17;;;;;;;0.44;100.00;101700.97;6249300;22;20010;-85
2024/01/07 06:21:52;;;;;;;44.38;19.00;;;;;;;0.41;100.00;101713.63;6300087;22;20084;-86
2024/01/07 06:24:18;;;;;;;43.80;18.58;;;;;;;0.39;100.00;101710.09;6246852;22;20042;-86
2024/01/07 06:26:44;;;;;;;37.50;18.05;;;;;;;0.44;100.00;101713.56;6248670;22;20450;-86
2024/01/07 06:29:09;;;;;;;40.83;18.83;;;;;;;0.43;100.00;101726.16;6247272;22;20070;-85
2024/01/07 06:31:35;;;;;;;42.50;19.73;;;;;;;0.47;100.00;101724.28;6248091;22;20094;-86
2024/01/07 06:34:01;;;;;;;40.38;18.55;;;;;;;0.50;100.00;101737.69;6247640;22;20016;-87
2024/01/07 06:36:26;;;;;;;40.15;19.05;;;;;;;0.46;100.00;101741.34;6273541;22;20011;-86
2024/01/07 06:38:52;;;;;;;40.15;18.25;;;;;;;0.44;100.00;101737.81;6247836;22;20091;-86
2024/01/07 06:41:19;;;;;;;41.58;17.95;;;;;;;0.48;100.00;101744.94;6248014;22;20018;-86
2024/01/07 06:43:49;;;;;;;40.33;17.95;;;;;;;0.50;100.00;101752.03;6298306;22;20007;-85
2024/01/07 06:46:15;;;;;;;38.88;16.58;;;;;;;0.47;100.00;101759.31;6248500;22;20014;-87
2024/01/07 06:48:40;;;;;;;46.00;18.20;;;;;;;0.39;100.00;101755.91;6247891;22;20007;-86
2024/01/07 06:51:06;;;;;;;40.08;19.08;;;;;;;0.41;100.00;101757.66;6248363;22;20003;-86
2024/01/07 06:53:31;;;;;;;33.72;15.95;;;;;;;0.43;100.00;101769.25;6273203;22;20114;-85
2024/01/07 06:55:57;;;;;;;47.45;19.65;;;;;;;0.44;100.00;101765.63;6273987;22;20012;-87
2024/01/07 06:58:22;;;;;;;39.38;17.55;;;;;;;0.47;100.00;101768.25;6248403;22;20081;-86
2024/01/07 07:00:48;;;;;;;36.58;15.75;;;;;;;0.48;100.00;101772.75;6273180;22;20039;-86
2024/01/07 07:03:15;;;;;;;36.75;18.10;;;;;;;0.43;100.00;101774.66;6273506;22;20012;-87
2024/01/07 07:05:40;;;;;;;39.00;15.65;;;;;;;0.44;100.00;101779.09;6247820;22;20073;-86
2024/01/07 07:08:06;;;;;;;40.15;17.50;;;;;;;0.37;100.00;101782.88;6248452;22;20007;-87
2024/01/07 07:10:31;;;;;;;41.40;16.80;;;;;;;0.35;100.00;101790.97;6248267;22;20066;-86
2024/01/07 07:12:57;;;;;;;39.88;17.15;;;;;;;0.35;100.00;101790.97;6275325;22;20004;-86
2024/01/07 07:15:26;;;;;;;38.35;17.38;;;;;;;0.34;100.00;101794.59;6274272;22;20007;-86
2024/01/07 07:17:52;;;;;;;46.10;18.23;;;;;;;0.35;100.00;101803.56;6275843;22;20007;-87
2024/01/07 07:20:18;;;;;;;46.60;19.85;;;;;;;0.42;100.00;101802.50;6275682;22;20038;-86
2024/01/07 07:22:43;;;;;;;46.40;19.52;;;;;;;0.40;100.00;101804.34;6275134;22;20372;-85
2024/01/07 07:25:11;;;;;;;39.38;18.65;;;;;;;0.38;100.00;101821.44;6274736;22;20427;-86
2024/01/07 07:27:38;;;;;;;42.85;19.00;;;;;;;0.38;100.00;101825.06;6275386;22;20015;-85
2024/01/07 07:30:05;;;;;;;43.00;19.08;;;;;;;0.40;100.00;101825.03;6249492;22;20081;-86
2024/01/07 07:32:30;;;;;;;43.80;19.10;;;;;;;0.38;100.00;101826.84;6252801;22;20439;-85
2024/01/07 07:34:55;;;;;;;44.90;19.27;;;;;;;0.35;100.00;101831.38;6275543;22;20016;-87
2024/01/07 07:37:21;;;;;;;46.78;19.85;;;;;;;0.25;100.00;101837.88;6279013;22;20042;-87
2024/01/07 07:39:47;;;;;;;43.30;19.13;;;;;;;0.31;100.00;101840.47;6249738;22;20339;-86
2024/01/07 07:42:13;;;;;;;43.75;19.10;;;;;;;0.24;100.00;101833.41;6302180;22;20011;-86
2024/01/07 07:44:40;;;;;;;39.70;17.67;;;;;;;0.35;100.00;101843.97;6250056;22;20008;-87
2024/01/07 07:47:07;;;;;;;49.25;19.80;;;;;;;0.27;100.00;101848.63;6274830;22;20012;-87
2024/01/07 07:49:32;;;;;;;44.13;17.42;;;;;;;0.36;100.00;101853.81;6249162;22;20007;-89
2024/01/07 07:51:59;;;;;;;46.55;19.50;;;;;;;0.39;100.00;101855.56;6275657;22;20382;-86
2024/01/07 07:54:25;;;;;;;45.97;18.85;;;;;;;0.28;100.00;101859.38;6248505;22;20037;-85
2024/01/07 07:56:50;;;;;;;47.15;19.23;;;;;;;0.35;100.00;101862.81;6248544;22;20020;-85
2024/01/07 07:59:15;;;;;;;52.03;18.77;;;;;;;0.31;100.00;101863.78;6271139;22;20012;-85
2024/01/07 08:01:42;;;;;;;44.05;19.17;;;;;;;0.23;100.00;101865.75;6246672;22;20755;-85
2024/01/07 08:04:10;;;;;;;41.85;17.38;;;;;;;0.25;100.00;101863.94;6247135;22;20014;-84
2024/01/07 08:06:35;;;;;;;54.60;19.35;;;;;;;0.28;100.00;101875.53;6300623;22;20003;-85
2024/01/07 08:09:07;;;;;;;51.35;20.95;;;;;;;0.24;100.00;101868.41;6248695;22;20012;-87
2024/01/07 08:11:32;;;;;;;46.92;20.25;;;;;;;0.23;100.00;101879.22;6249333;22;20469;-85
2024/01/07 08:13:58;;;;;;;44.47;18.95;;;;;;;0.31;100.00;101882.63;6275559;22;20007;-87
2024/01/07 08:16:24;;;;;;;44.70;19.95;;;;;;;0.33;100.00;101883.53;6275852;22;20050;-88
2024/01/07 08:18:50;;;;;;;45.83;18.08;;;;;;;0.22;100.00;101877.47;6274232;22;20403;-86
2024/01/07 08:21:17;;;;;;;48.65;20.48;;;;;;;0.22;100.00;101880.16;6249147;22;20094;-86
2024/01/07 08:23:43;;;;;;;52.20;21.92;;;;;;;0.22;100.00;101877.47;6275684;22;20047;-87
2024/01/07 08:26:09;;;;;;;46.72;19.77;;;;;;;0.19;100.00;101891.84;6299839;22;20379;-86
2024/01/07 08:28:38;;;;;;;54.65;20.77;;;;;;;0.18;100.00;101899.06;6249338;22;20011;-86
2024/01/07 08:31:04;;;;;;;46.88;20.17;;;;;;;0.16;100.00;101905.38;6273809;22;20008;-85
2024/01/07 08:33:33;;;;;;;44.05;19.95;;;;;;;0.12;100.00;101901.84;6273011;22;20012;-86
2024/01/07 08:35:58;;;;;;;39.90;18.92;;;;;;;0.08;100.00;101904.63;6248486;22;20007;-86
2024/01/07 08:38:25;;;;;;;42.90;18.30;;;;;;;0.11;100.00;101913.53;6249162;22;20102;-86
2024/01/07 08:40:53;;;;;;;42.58;20.30;;;;;;;0.08;100.00;101910.00;6249085;22;20003;-84
2024/01/07 08:43:19;;;;;;;42.70;18.52;;;;;;;0.13;100.00;101919.81;6275605;22;20339;-87
2024/01/07 08:45:44;;;;;;;42.17;18.95;;;;;;;0.08;100.00;101918.09;6275008;22;20098;-87
2024/01/07 08:48:12;;;;;;;33.08;14.40;;;;;;;0.06;100.00;101928.88;6274937;22;20015;-86
2024/01/07 08:50:38;;;;;;;42.13;17.13;;;;;;;0.07;100.00;101921.72;6249287;22;20038;-86
2024/01/07 08:53:03;;;;;;;42.58;18.23;;;;;;;0.10;100.00;101925.25;6248924;22;20474;-87
2024/01/07 08:55:32;;;;;;;40.30;18.20;;;;;;;0.12;100.00;101930.59;6273730;22;20014;-85
2024/01/07 08:57:57;;;;;;;41.83;17.80;;;;;;;0.07;100.00;101935.19;6298862;22;20010;-85
2024/01/07 09:00:26;;;;;;;44.65;17.52;;;;;;;0.02;100.00;101932.56;6273571;22;20335;-86
2024/01/07 09:02:53;;;;;;;39.78;18.40;;;;;;;0.10;100.00;101938.69;6246670;22;20643;-86
2024/01/07 09:05:19;;;;;;;29.67;14.77;;;;;;;0.16;100.00;101943.97;6295934;22;20011;-86
2024/01/07 09:07:44;;;;;;;48.90;20.00;;;;;;;0.12;100.00;101944.94;6246481;22;20065;-85
2024/01/07 09:10:10;;;;;;;40.67;17.67;;;;;;;0.10;100.00;101949.47;6272292;22;20022;-86
2024/01/07 09:12:38;;;;;;;34.65;15.88;;;;;;;0.09;100.00;101954.88;6270170;22;20034;-85
2024/01/07 09:15:10;;;;;;;41.88;18.90;;;;;;;0.08;100.00;101950.41;6270497;22;20045;-86
2024/01/07 09:17:38;;;;;;;43.22;18.52;;;;;;;0.11;100.00;101956.63;6245211;22;20704;-85
2024/01/07 09:20:07;;;;;;;33.53;16.70;;;;;;;0.16;100.00;101962.84;6247059;22;20077;-85
2024/01/07 09:22:36;;;;;;;36.40;18.00;;;;;;;0.15;100.00;101968.25;6271580;22;20007;-85
2024/01/07 09:25:06;;;;;;;29.63;12.35;;;;;;;0.14;100.00;101972.72;6272248;22;20102;-85
2024/01/07 09:27:32;;;;;;;32.90;16.95;;;;;;;0.10;100.00;101975.47;6273491;22;20008;-86
2024/01/07 09:29:58;;;;;;;33.13;16.33;;;;;;;0.15;100.00;101976.31;6246784;22;20049;-85
2024/01/07 09:32:23;;;;;;;37.90;16.17;;;;;;;0.17;100.00;101985.25;6245884;22;20011;-86
2024/01/07 09:34:49;;;;;;;37.97;16.08;;;;;;;0.14;100.00;101988.88;6247979;22;20015;-85
2024/01/07 09:37:14;;;;;;;36.25;16.80;;;;;;;0.08;100.00;101996.16;6245039;22;20054;-85
2024/01/07 09:39:41;;;;;;;33.83;16.42;;;;;;;0.06;100.00;102000.69;6246735;22;20007;-86
2024/01/07 09:42:17;;;;;;;36.00;17.90;;;;;;;0.09;100.00;102000.66;6243502;22;20015;-88
2024/01/07 09:44:43;;;;;;;29.85;14.30;;;;;;;0.01;100.00;101994.50;6274865;22;20004;-85
2024/01/07 09:47:16;;;;;;;33.13;15.05;;;;;;;0.05;100.00;101998.91;6273244;22;20092;-86
2024/01/07 09:49:47;;;;;;;30.73;14.90;;;;;;;0.06;100.00;102004.28;6273511;22;20004;-84
2024/01/07 09:52:13;;;;;;;32.95;15.45;;;;;;;0.10;100.00;101997.94;6270872;22;20011;-87
2024/01/07 09:54:40;;;;;;;28.42;14.93;;;;;;;0.10;100.00;102007.78;6247315;22;20038;-86
2024/01/07 09:57:07;;;;;;;28.95;14.73;;;;;;;0.16;100.00;102011.31;6271994;22;20090;-87
2024/01/07 09:59:35;;;;;;;29.10;13.10;;;;;;;0.17;100.00;102009.50;6271510;22;20016;-85
2024/01/07 10:02:01;;;;;;;31.40;14.98;;;;;;;0.17;100.00;102013.06;6271884;22;20019;-86
2024/01/07 10:04:28;;;;;;;28.05;14.75;;;;;;;0.20;100.00;102024.69;6272206;22;20011;-86
2024/01/07 10:06:55;;;;;;;34.25;15.02;;;;;;;0.17;100.00;102018.44;6274407;22;20015;-85
2024/01/07 10:09:47;;;;;;;28.55;13.85;;;;;;;0.14;100.00;102017.63;6273178;22;20004;-87
2024/01/07 10:12:13;;;;;;;27.83;14.30;;;;;;;0.12;100.00;102017.63;6276117;22;20082;-86
2024/01/07 10:14:40;;;;;;;26.77;14.82;;;;;;;0.19;100.00;102026.50;6309738;22;20095;-96
2024/01/07 10:17:16;;;;;;;24.25;13.68;;;;;;;0.23;100.00;102030.94;6311405;22;20004;-94
2024/01/07 10:19:44;;;;;;;20.92;11.27;;;;;;;0.24;100.00;102035.38;6258529;22;20384;-95
2024/01/07 10:22:12;;;;;;;27.55;14.15;;;;;;;0.12;100.00;102033.78;6282459;22;20016;-96
2024/01/07 10:24:45;;;;;;;22.65;11.02;;;;;;;0.22;100.00;102030.97;6262065;22;20012;-94
2024/01/07 10:27:13;;;;;;;25.85;13.48;;;;;;;0.13;100.00;102029.28;6267500;22;20011;-95
2024/01/07 10:29:38;;;;;;;27.92;13.00;;;;;;;0.21;100.00;102046.22;6276100;22;20039;-94
2024/01/07 10:32:05;;;;;;;25.13;14.20;;;;;;;0.14;100.00;102040.03;6264600;22;19988;-95
2024/01/07 10:34:36;;;;;;;24.48;13.57;;;;;;;0.11;100.00;102037.38;6282046;22;19999;-94
2024/01/07 10:37:04;;;;;;;22.38;11.80;;;;;;;0.12;100.00;102038.31;6279894;22;20094;-94
2024/01/07 10:39:30;;;;;;;18.92;10.65;;;;;;;0.10;100.00;102035.63;6256337;22;20020;-93
2024/01/07 10:41:59;;;;;;;24.98;13.52;;;;;;;0.14;100.00;102044.53;6279538;22;20034;-94
2024/01/07 10:44:26;;;;;;;19.13;11.88;;;;;;;0.17;100.00;102047.19;6253787;22;20026;-95
2024/01/07 10:46:57;;;;;;;24.70;12.85;;;;;;;0.28;100.00;102047.00;6280444;22;20007;-95
2024/01/07 10:49:27;;;;;;;22.02;12.48;;;;;;;0.20;100.00;102047.16;6278917;22;20050;-94
2024/01/07 10:52:08;;;;;;;18.73;11.13;;;;;;;0.13;100.00;102046.34;6278575;22;20035;-95
2024/01/07 10:54:35;;;;;;;22.33;11.85;;;;;;;0.13;100.00;102046.34;6254231;22;20008;-96
2024/01/07 10:57:42;;;;;;;22.20;12.02;;;;;;;0.16;100.00;102053.47;6279130;22;20008;-95
2024/01/07 11:00:09;;;;;;;16.85;9.18;;;;;;;0.14;100.00;102041.84;6279973;22;20040;-96
2024/01/07 11:02:46;;;;;;;21.55;11.90;;;;;;;0.21;100.00;102043.50;6281462;22;20431;-96
2024/01/07 11:05:18;;;;;;;19.40;10.43;;;;;;;0.17;100.00;102049.88;6280841;22;20399;-96
2024/01/07 11:07:57;;;;;;;19.98;10.85;;;;;;;0.22;100.00;102055.19;6281750;22;20004;-96